To NAV CANADA Home Page Login to a new session Search on AWWS site Feedback and Comments Disclaimer Vers la page française équivalente Tips FAQ What's new on the site To the Forecasts and Observations / NOTAM section To "File a Flight Plan" website Publications and other links Update of the User's profile FIC Telephone Numbers My Weather Data Folder Route Weather Data Regional Weather Data Local Weather Data To the Forecasts and Observations / NOTAM section
Request Generated 04/30/2017 at 05:03:35 UTC . Weather information available at that time is displayed.

METAR/TAF

HIGH LEVEL/AB    (show WxCam)

METAR CYOJ 300500Z AUTO 10002KT 9SM SCT100 BKN120 10/M05 A2978 RMK
SLP097=
METAR CYOJ 300400Z 17002KT 15SM VCSH BKN095 10/M05 A2979 RMK AC5 LAST
STFD OBS/NEXT 301300UTC SLP100=
METAR CYOJ 300300Z 14006KT 15SM BKN100 13/M05 A2979 RMK AC5 SLP101
DENSITY ALT 1200FT=

TAF CYOJ 300038Z 3001/3013 16005KT P6SM SCT070 BKN120 TEMPO 3001/3003
P6SM VCSH BKN070
BECMG 3003/3005 VRB03KT FEW070
RMK NXT FCST BY 300700Z=
Your time UTC time
Weather data provided by Environment Canada and NAV CANADA